createdAt,value
2017-10-03T00:00:28.870Z,5.48
2017-10-03T00:01:28.855Z,5.28
2017-10-03T00:02:28.842Z,5.27
2017-10-03T00:03:28.829Z,5.24
2017-10-03T00:04:28.816Z,5.27
2017-10-03T00:05:28.801Z,5.30
2017-10-03T00:06:28.786Z,5.28
2017-10-03T00:07:28.772Z,5.33
2017-10-03T00:08:28.759Z,5.28
2017-10-03T00:09:28.745Z,5.28
2017-10-03T00:10:28.731Z,5.25
2017-10-03T00:11:28.718Z,5.33
2017-10-03T00:12:28.704Z,5.30
2017-10-03T00:13:28.690Z,5.30
2017-10-03T00:14:28.675Z,5.27
2017-10-03T00:15:28.662Z,5.28
2017-10-03T00:16:28.649Z,5.22
2017-10-03T00:17:28.635Z,5.30
2017-10-03T00:18:28.621Z,5.25
2017-10-03T00:19:28.608Z,5.36
2017-10-03T00:20:28.593Z,5.31
2017-10-03T00:21:28.581Z,5.31
2017-10-03T00:22:28.566Z,5.40
2017-10-03T00:23:28.552Z,5.35
2017-10-03T00:24:28.538Z,5.30
2017-10-03T00:25:28.525Z,5.24
2017-10-03T00:26:28.515Z,5.31
2017-10-03T00:27:28.499Z,5.30
2017-10-03T00:28:28.484Z,5.33
2017-10-03T00:29:28.469Z,5.30
2017-10-03T00:30:28.456Z,5.24
2017-10-03T00:31:28.442Z,5.25
2017-10-03T00:32:28.430Z,5.40
2017-10-03T00:33:28.420Z,5.48
2017-10-03T00:34:28.400Z,5.60
2017-10-03T00:35:28.387Z,5.67
2017-10-03T00:36:28.374Z,5.60
2017-10-03T00:37:28.361Z,5.46
2017-10-03T00:38:28.350Z,5.40
2017-10-03T00:39:28.333Z,5.43
2017-10-03T00:40:28.319Z,5.33
2017-10-03T00:41:28.307Z,5.27
2017-10-03T00:42:28.292Z,5.22
2017-10-03T00:43:28.280Z,5.24
2017-10-03T00:44:28.265Z,5.22
2017-10-03T00:45:28.251Z,5.40
2017-10-03T00:46:28.237Z,5.39
2017-10-03T00:47:28.224Z,5.27
2017-10-03T00:48:28.210Z,5.07
2017-10-03T00:49:28.201Z,5.30
2017-10-03T00:50:28.182Z,5.42
2017-10-03T00:51:28.169Z,5.51
2017-10-03T00:52:28.156Z,5.46
2017-10-03T00:53:28.144Z,5.28
2017-10-03T00:54:28.130Z,5.33
2017-10-03T00:55:28.115Z,5.21
2017-10-03T00:56:28.102Z,5.22
2017-10-03T00:57:28.089Z,5.22
2017-10-03T00:58:28.074Z,5.10
2017-10-03T00:59:28.062Z,5.06
2017-10-03T01:00:28.049Z,5.07
2017-10-03T01:01:28.034Z,5.12
2017-10-03T01:02:28.020Z,5.22
2017-10-03T01:03:28.006Z,5.28
2017-10-03T01:04:27.993Z,5.27
2017-10-03T01:05:27.979Z,5.22
2017-10-03T01:06:27.965Z,5.18
2017-10-03T01:07:27.951Z,5.20
2017-10-03T01:08:27.939Z,5.18
2017-10-03T01:09:27.926Z,5.28
2017-10-03T01:10:27.910Z,5.20
2017-10-03T01:11:27.897Z,5.25
2017-10-03T01:12:27.883Z,5.21
2017-10-03T01:13:27.870Z,5.25
2017-10-03T01:14:27.856Z,5.31
2017-10-03T01:15:27.843Z,5.27
2017-10-03T01:16:27.829Z,5.28
2017-10-03T01:17:27.816Z,5.38
2017-10-03T01:18:27.804Z,5.27
2017-10-03T01:19:27.790Z,5.30
2017-10-03T01:20:27.776Z,5.21
2017-10-03T01:21:27.762Z,5.21
2017-10-03T01:22:27.749Z,5.21
2017-10-03T01:23:27.742Z,5.28
2017-10-03T01:24:27.722Z,5.36
2017-10-03T01:25:27.709Z,5.43
2017-10-03T01:26:27.695Z,5.42
2017-10-03T01:27:27.681Z,5.40
2017-10-03T01:28:27.669Z,5.42
2017-10-03T01:29:27.655Z,5.45
2017-10-03T01:30:27.642Z,5.43
2017-10-03T01:31:27.628Z,5.58
2017-10-03T01:32:27.614Z,5.53
2017-10-03T01:33:27.601Z,5.56
2017-10-03T01:34:27.586Z,5.51
2017-10-03T01:35:27.593Z,5.39
2017-10-03T01:36:27.563Z,5.30
2017-10-03T01:37:27.547Z,5.30
2017-10-03T01:38:27.534Z,5.35
2017-10-03T01:39:27.520Z,5.46
2017-10-03T01:40:27.507Z,5.31
2017-10-03T01:41:27.494Z,5.28
2017-10-03T01:42:27.480Z,5.36
2017-10-03T01:43:27.467Z,5.42
2017-10-03T01:44:27.453Z,5.38
2017-10-03T01:45:27.440Z,5.40
2017-10-03T01:46:27.427Z,5.42
2017-10-03T01:47:27.413Z,5.46
2017-10-03T01:48:27.400Z,5.64
2017-10-03T01:49:27.387Z,5.63
2017-10-03T01:50:27.373Z,5.71
2017-10-03T01:51:27.361Z,5.57
2017-10-03T01:52:27.347Z,5.42
2017-10-03T01:53:27.334Z,5.20
2017-10-03T01:54:27.321Z,5.33
2017-10-03T01:55:27.307Z,5.21
2017-10-03T01:56:27.294Z,5.21
2017-10-03T01:57:27.280Z,5.25
2017-10-03T01:58:27.265Z,5.21
2017-10-03T01:59:27.257Z,5.21
2017-10-03T02:00:27.240Z,5.21
2017-10-03T02:01:27.226Z,5.31
2017-10-03T02:02:27.211Z,5.42
2017-10-03T02:03:27.199Z,5.42
2017-10-03T02:04:27.186Z,5.31
2017-10-03T02:05:27.173Z,5.24
2017-10-03T02:06:27.159Z,5.21
2017-10-03T02:07:27.145Z,5.24
2017-10-03T02:08:27.132Z,5.27
2017-10-03T02:09:27.118Z,5.35
2017-10-03T02:10:27.104Z,5.31
2017-10-03T02:11:27.104Z,5.28
2017-10-03T02:12:27.077Z,5.38
2017-10-03T02:13:27.064Z,5.40
2017-10-03T02:14:27.052Z,5.30
2017-10-03T02:15:27.036Z,5.31
2017-10-03T02:16:27.025Z,5.33
2017-10-03T02:17:27.011Z,5.27
2017-10-03T02:18:26.997Z,5.28
2017-10-03T02:19:26.985Z,5.25
2017-10-03T02:20:26.971Z,5.27
2017-10-03T02:21:26.964Z,5.39
2017-10-03T02:22:26.943Z,5.38
2017-10-03T02:23:26.933Z,5.33
2017-10-03T02:24:26.917Z,5.30
2017-10-03T02:25:26.905Z,5.35
2017-10-03T02:26:26.890Z,5.27
2017-10-03T02:27:26.877Z,5.33
2017-10-03T02:28:26.864Z,5.27
2017-10-03T02:29:26.869Z,5.35
2017-10-03T02:30:26.838Z,5.45
2017-10-03T02:31:26.825Z,5.43
2017-10-03T02:32:26.811Z,5.33
2017-10-03T02:33:26.797Z,5.25
2017-10-03T02:34:26.784Z,5.30
2017-10-03T02:35:26.771Z,5.28
2017-10-03T02:36:26.758Z,5.25
2017-10-03T02:37:26.745Z,5.38
2017-10-03T02:38:26.730Z,5.36
2017-10-03T02:39:26.718Z,5.38
2017-10-03T02:40:26.705Z,5.35
2017-10-03T02:41:26.691Z,5.39
2017-10-03T02:42:26.677Z,5.24
2017-10-03T02:43:26.664Z,5.22
2017-10-03T02:44:26.652Z,5.12
2017-10-03T02:45:26.639Z,5.24
2017-10-03T02:46:26.628Z,5.03
2017-10-03T02:47:26.610Z,5.07
2017-10-03T02:48:26.596Z,5.12
2017-10-03T02:49:26.583Z,5.17
2017-10-03T02:50:26.569Z,5.12
2017-10-03T02:51:26.557Z,5.07
2017-10-03T02:52:26.542Z,5.09
2017-10-03T02:53:26.528Z,5.18
2017-10-03T02:54:26.515Z,5.28
2017-10-03T02:55:26.504Z,5.45
2017-10-03T02:56:26.487Z,5.40
2017-10-03T02:57:26.474Z,5.42
2017-10-03T02:58:26.459Z,5.43
2017-10-03T02:59:26.446Z,5.45
2017-10-03T03:00:26.432Z,5.33
2017-10-03T03:01:26.420Z,5.31
2017-10-03T03:02:26.405Z,5.22
2017-10-03T03:03:26.392Z,5.43
2017-10-03T03:04:26.378Z,5.45
2017-10-03T03:05:26.364Z,5.21
2017-10-03T03:06:26.352Z,5.25
2017-10-03T03:07:26.337Z,5.21
2017-10-03T03:08:26.326Z,5.12
2017-10-03T03:09:26.310Z,5.09
2017-10-03T03:10:26.296Z,5.12
2017-10-03T03:11:26.282Z,5.22
2017-10-03T03:12:26.269Z,5.27
2017-10-03T03:13:26.255Z,5.42
2017-10-03T03:14:26.240Z,5.30
2017-10-03T03:15:26.227Z,5.21
2017-10-03T03:16:26.213Z,5.24
2017-10-03T03:17:26.200Z,5.30
2017-10-03T03:18:26.186Z,5.39
2017-10-03T03:19:26.172Z,5.31
2017-10-03T03:20:26.159Z,5.28
2017-10-03T03:21:26.147Z,5.12
2017-10-03T03:22:26.131Z,5.12
2017-10-03T03:23:26.119Z,5.07
2017-10-03T03:24:26.107Z,5.24
2017-10-03T03:25:26.090Z,5.09
2017-10-03T03:26:26.076Z,5.22
2017-10-03T03:27:26.063Z,5.30
2017-10-03T03:28:26.049Z,5.45
2017-10-03T03:29:26.036Z,5.38
2017-10-03T03:30:26.023Z,5.40
2017-10-03T03:31:26.009Z,5.45
2017-10-03T03:32:25.994Z,5.53
2017-10-03T03:33:25.980Z,5.46
2017-10-03T03:34:25.966Z,5.53
2017-10-03T03:35:25.952Z,5.42
2017-10-03T03:36:25.942Z,5.49
2017-10-03T03:37:25.925Z,5.33
2017-10-03T03:38:25.910Z,5.39
2017-10-03T03:39:25.897Z,5.42
2017-10-03T03:40:25.883Z,5.45
2017-10-03T03:41:25.870Z,5.39
2017-10-03T03:42:25.856Z,5.40
2017-10-03T03:43:25.842Z,5.33
2017-10-03T03:44:25.828Z,5.39
2017-10-03T03:45:25.815Z,5.40
2017-10-03T03:46:25.801Z,5.35
2017-10-03T03:47:25.787Z,5.40
2017-10-03T03:48:25.773Z,5.40
2017-10-03T03:49:25.760Z,5.28
2017-10-03T03:50:25.745Z,5.20
2017-10-03T03:51:25.732Z,5.24
2017-10-03T03:52:25.718Z,5.21
2017-10-03T03:53:25.704Z,5.30
2017-10-03T03:54:25.690Z,5.18
2017-10-03T03:55:25.675Z,5.27
2017-10-03T03:56:25.663Z,5.30
2017-10-03T03:57:25.648Z,5.28
2017-10-03T03:58:25.633Z,5.28
2017-10-03T03:59:25.619Z,5.33
2017-10-03T04:00:25.605Z,5.27
2017-10-03T04:01:25.594Z,5.22
2017-10-03T04:02:25.577Z,5.30
2017-10-03T04:03:25.564Z,5.27
2017-10-03T04:04:25.549Z,5.40
2017-10-03T04:05:25.536Z,5.43
2017-10-03T04:06:25.521Z,5.30
2017-10-03T04:07:25.508Z,5.33
2017-10-03T04:08:25.494Z,5.36
2017-10-03T04:09:25.479Z,5.30
2017-10-03T04:10:25.465Z,5.31
2017-10-03T04:11:25.450Z,5.40
2017-10-03T04:12:25.437Z,5.38
2017-10-03T04:13:25.424Z,5.49
2017-10-03T04:14:25.408Z,5.42
2017-10-03T04:15:25.395Z,5.36
2017-10-03T04:16:25.381Z,5.45
2017-10-03T04:17:25.367Z,5.49
2017-10-03T04:18:25.357Z,5.53
2017-10-03T04:19:25.340Z,5.43
2017-10-03T04:20:25.327Z,5.58
2017-10-03T04:21:25.313Z,5.48
2017-10-03T04:22:25.299Z,5.53
2017-10-03T04:23:25.285Z,5.46
2017-10-03T04:24:25.275Z,5.42
2017-10-03T04:25:25.258Z,5.48
2017-10-03T04:26:25.244Z,5.40
2017-10-03T04:27:25.232Z,5.43
2017-10-03T04:28:25.218Z,5.64
2017-10-03T04:29:25.204Z,5.46
2017-10-03T04:30:25.189Z,5.57
2017-10-03T04:31:25.175Z,5.65
2017-10-03T04:32:25.162Z,5.60
2017-10-03T04:33:25.149Z,5.51
2017-10-03T04:34:25.134Z,5.57
2017-10-03T04:35:25.120Z,5.61
2017-10-03T04:36:25.107Z,5.60
2017-10-03T04:37:25.093Z,5.60
2017-10-03T04:38:25.080Z,5.63
2017-10-03T04:39:25.067Z,5.56
2017-10-03T04:40:25.052Z,5.61
2017-10-03T04:41:25.040Z,5.53
2017-10-03T04:42:25.025Z,5.54
2017-10-03T04:43:25.011Z,5.65
2017-10-03T04:44:25.002Z,5.65
2017-10-03T04:45:24.985Z,5.65
2017-10-03T04:46:24.970Z,5.63
2017-10-03T04:47:24.956Z,5.61
2017-10-03T04:48:24.943Z,5.61
2017-10-03T04:49:24.930Z,5.65
2017-10-03T04:50:24.916Z,5.60
2017-10-03T04:51:24.901Z,5.61
2017-10-03T04:52:24.889Z,5.63
2017-10-03T04:53:24.875Z,5.54
2017-10-03T04:54:24.860Z,5.57
2017-10-03T04:55:24.846Z,5.54
2017-10-03T04:56:24.834Z,5.53
2017-10-03T04:57:24.820Z,5.56
2017-10-03T04:58:24.805Z,5.57
2017-10-03T04:59:24.792Z,5.58
2017-10-03T05:00:24.779Z,5.54
2017-10-03T05:01:24.765Z,5.57
2017-10-03T05:02:24.750Z,5.48
2017-10-03T05:03:24.736Z,5.43
2017-10-03T05:04:24.723Z,5.58
2017-10-03T05:05:24.709Z,5.60
2017-10-03T05:06:24.693Z,5.56
2017-10-03T05:07:24.681Z,5.61
2017-10-03T05:08:24.667Z,5.65
2017-10-03T05:09:24.654Z,5.64
2017-10-03T05:10:24.640Z,5.61
2017-10-03T05:11:24.625Z,5.68
2017-10-03T05:12:24.612Z,5.48
2017-10-03T05:13:24.598Z,5.57
2017-10-03T05:14:24.584Z,5.58
2017-10-03T05:15:24.571Z,5.58
2017-10-03T05:16:24.558Z,5.58
2017-10-03T05:17:24.544Z,5.57
2017-10-03T05:18:24.531Z,5.43
2017-10-03T05:19:24.517Z,5.46
2017-10-03T05:20:24.502Z,5.57
2017-10-03T05:21:24.489Z,5.57
2017-10-03T05:22:24.474Z,5.54
2017-10-03T05:23:24.461Z,5.54
2017-10-03T05:24:24.447Z,5.58
2017-10-03T05:25:24.434Z,5.65
2017-10-03T05:26:24.420Z,5.65
2017-10-03T05:27:24.405Z,5.60
2017-10-03T05:28:24.392Z,5.57
2017-10-03T05:29:24.379Z,5.67
2017-10-03T05:30:24.364Z,5.63
2017-10-03T05:31:24.352Z,5.53
2017-10-03T05:32:24.338Z,5.57
2017-10-03T05:33:24.325Z,5.46
2017-10-03T05:34:24.310Z,5.51
2017-10-03T05:35:24.297Z,5.49
2017-10-03T05:36:24.283Z,5.46
2017-10-03T05:37:24.269Z,5.49
2017-10-03T05:38:24.259Z,5.63
2017-10-03T05:39:24.247Z,5.63
2017-10-03T05:40:24.228Z,5.60
2017-10-03T05:41:24.214Z,5.60
2017-10-03T05:42:24.200Z,5.64
2017-10-03T05:43:24.186Z,5.67
2017-10-03T05:44:24.173Z,5.71
2017-10-03T05:45:24.160Z,5.68
2017-10-03T05:46:24.146Z,5.58
2017-10-03T05:47:24.132Z,5.49
2017-10-03T05:48:24.122Z,5.45
2017-10-03T05:49:24.106Z,5.38
2017-10-03T05:50:24.090Z,5.40
2017-10-03T05:51:24.078Z,5.35
2017-10-03T05:52:24.064Z,5.24
2017-10-03T05:53:24.056Z,5.39
2017-10-03T05:54:24.036Z,5.39
2017-10-03T05:55:24.022Z,5.25
2017-10-03T05:56:24.010Z,5.21
2017-10-03T05:57:23.994Z,5.30
2017-10-03T05:58:23.981Z,5.31
2017-10-03T05:59:23.967Z,5.28
2017-10-03T06:00:23.953Z,5.40
2017-10-03T06:01:23.940Z,5.45
2017-10-03T06:02:23.929Z,5.43
2017-10-03T06:03:23.911Z,5.31
2017-10-03T06:04:23.900Z,5.35
2017-10-03T06:05:23.884Z,5.30
2017-10-03T06:06:23.870Z,5.31
2017-10-03T06:07:23.856Z,5.39
2017-10-03T06:08:23.843Z,5.35
2017-10-03T06:09:23.830Z,5.17
2017-10-03T06:10:23.814Z,5.06
2017-10-03T06:11:23.800Z,5.18
2017-10-03T06:12:23.787Z,5.09
2017-10-03T06:13:23.773Z,5.21
2017-10-03T06:14:23.758Z,5.03
2017-10-03T06:15:23.745Z,5.09
2017-10-03T06:16:23.735Z,5.07
2017-10-03T06:17:23.716Z,5.02
2017-10-03T06:18:23.703Z,5.06
2017-10-03T06:19:23.689Z,4.99
2017-10-03T06:20:23.675Z,4.96
2017-10-03T06:21:23.662Z,4.99
2017-10-03T06:22:23.653Z,5.02
2017-10-03T06:23:23.633Z,5.02
2017-10-03T06:24:23.619Z,5.04
2017-10-03T06:25:23.605Z,5.03
2017-10-03T06:26:23.591Z,4.99
2017-10-03T06:27:23.577Z,5.06
2017-10-03T06:28:23.563Z,5.03
2017-10-03T06:29:23.550Z,5.07
2017-10-03T06:30:23.535Z,5.06
2017-10-03T06:31:23.521Z,5.03
2017-10-03T06:32:23.507Z,5.06
2017-10-03T06:33:23.493Z,5.04
2017-10-03T06:34:23.479Z,5.02
2017-10-03T06:35:23.465Z,5.12
2017-10-03T06:36:23.455Z,5.27
2017-10-03T06:37:23.437Z,5.27
2017-10-03T06:38:23.422Z,5.09
2017-10-03T06:39:23.430Z,4.94
2017-10-03T06:40:23.395Z,4.86
2017-10-03T06:41:23.381Z,4.80
2017-10-03T06:42:23.368Z,4.89
2017-10-03T06:43:23.352Z,4.86
2017-10-03T06:50:06.533Z,4.63
2017-10-03T06:51:06.518Z,4.75
2017-10-03T06:52:06.505Z,4.59
2017-10-03T06:53:06.491Z,4.65
2017-10-03T06:54:06.476Z,4.63
2017-10-03T06:55:06.465Z,4.62
2017-10-03T06:56:06.447Z,4.63
2017-10-03T06:57:06.435Z,4.75
2017-10-03T06:58:06.420Z,4.72
2017-10-03T06:59:06.405Z,4.65
2017-10-03T07:00:06.394Z,4.54
2017-10-03T07:01:06.379Z,4.58
2017-10-03T07:02:06.364Z,4.60
2017-10-03T07:03:06.348Z,4.69
2017-10-03T07:04:06.334Z,4.82
2017-10-03T07:05:06.321Z,4.78
2017-10-03T07:06:06.306Z,4.75
2017-10-03T07:07:06.292Z,4.65
2017-10-03T07:08:06.281Z,4.51
2017-10-03T07:09:06.264Z,4.51
2017-10-03T07:10:06.250Z,4.42
2017-10-03T07:11:06.235Z,4.55
2017-10-03T07:12:06.221Z,4.54
2017-10-03T07:13:06.207Z,4.54
2017-10-03T07:14:06.192Z,4.51
2017-10-03T07:15:06.180Z,4.70
2017-10-03T07:16:06.163Z,4.67
2017-10-03T07:17:06.149Z,4.67
2017-10-03T07:18:06.135Z,4.62
2017-10-03T07:19:06.120Z,4.66
2017-10-03T07:20:06.106Z,4.58
2017-10-03T07:21:06.092Z,4.69
2017-10-03T07:22:06.077Z,4.59
2017-10-03T07:23:06.063Z,4.63
2017-10-03T07:24:06.048Z,4.55
2017-10-03T07:25:06.035Z,4.54
2017-10-03T07:26:06.020Z,4.65
2017-10-03T07:27:06.006Z,4.67
2017-10-03T07:28:05.995Z,4.69
2017-10-03T07:29:05.977Z,4.58
2017-10-03T07:30:05.971Z,4.51
2017-10-03T07:31:05.947Z,4.60
2017-10-03T07:32:05.933Z,4.75
2017-10-03T07:33:05.919Z,4.70
2017-10-03T07:34:05.905Z,4.75
2017-10-03T07:35:05.889Z,4.85
2017-10-03T07:36:05.878Z,4.89
2017-10-03T07:37:05.861Z,4.75
2017-10-03T07:38:05.847Z,4.73
2017-10-03T07:39:05.838Z,4.60
2017-10-03T07:40:05.818Z,4.47
2017-10-03T07:41:05.804Z,4.45
2017-10-03T07:42:05.790Z,4.45
2017-10-03T07:43:05.776Z,4.59
2017-10-03T07:44:05.761Z,4.67
2017-10-03T07:45:05.778Z,4.59
2017-10-03T07:46:05.731Z,4.47
2017-10-03T07:47:05.735Z,4.41
2017-10-03T07:48:05.703Z,4.37
2017-10-03T07:49:05.689Z,4.41
2017-10-03T07:50:05.675Z,4.29
2017-10-03T07:51:05.658Z,4.30
2017-10-03T07:52:05.645Z,4.36
2017-10-03T07:53:05.631Z,4.36
2017-10-03T07:54:05.617Z,4.30
2017-10-03T07:55:05.601Z,4.45
2017-10-03T07:56:05.586Z,4.47
2017-10-03T07:57:05.590Z,4.42
2017-10-03T07:58:05.558Z,4.45
2017-10-03T07:59:05.543Z,4.36
2017-10-03T08:00:05.529Z,4.37
2017-10-03T08:01:05.516Z,4.45
2017-10-03T08:02:05.502Z,4.45
2017-10-03T08:03:05.486Z,4.41
2017-10-03T08:04:05.472Z,4.52
2017-10-03T08:05:05.459Z,4.37
2017-10-03T08:06:05.444Z,4.42
2017-10-03T08:07:05.429Z,4.33
2017-10-03T08:08:05.415Z,4.32
2017-10-03T08:09:05.407Z,4.24
2017-10-03T08:10:05.387Z,4.08
2017-10-03T08:11:05.372Z,3.91
2017-10-03T08:12:05.357Z,3.83
2017-10-03T08:13:05.345Z,3.60
2017-10-03T08:14:05.330Z,3.40
2017-10-03T08:15:05.315Z,3.17
2017-10-03T08:16:05.301Z,3.10
2017-10-03T08:17:05.287Z,2.81
2017-10-03T08:18:05.273Z,2.59
2017-10-03T08:19:05.258Z,2.30
2017-10-03T08:20:05.243Z,2.20
2017-10-03T08:21:05.228Z,1.93
2017-10-03T08:22:05.214Z,1.86
2017-10-03T08:23:05.198Z,1.80
2017-10-03T08:24:05.184Z,1.68
2017-10-03T08:25:05.168Z,1.52
2017-10-03T08:26:05.153Z,1.51
2017-10-03T08:27:05.137Z,1.51
2017-10-03T08:28:05.126Z,1.47
2017-10-03T08:29:05.106Z,1.33
2017-10-03T08:30:05.091Z,1.24
2017-10-03T08:31:05.077Z,1.22
2017-10-03T08:32:05.061Z,1.30
2017-10-03T08:33:05.043Z,1.16
2017-10-03T08:34:05.028Z,1.16
2017-10-03T08:35:05.015Z,1.23
2017-10-03T08:36:04.996Z,1.20
2017-10-03T08:37:04.979Z,1.15
2017-10-03T08:38:04.964Z,1.15
2017-10-03T08:39:04.947Z,1.14
2017-10-03T08:40:04.931Z,1.18
2017-10-03T08:41:04.915Z,1.20
2017-10-03T08:42:04.899Z,1.22
2017-10-03T08:43:04.882Z,1.12
2017-10-03T08:44:04.869Z,1.18
2017-10-03T08:45:04.850Z,1.11
2017-10-03T08:46:04.845Z,1.09
2017-10-03T08:47:04.817Z,0.98
2017-10-03T08:48:04.801Z,0.96
2017-10-03T08:49:04.784Z,0.97
2017-10-03T08:50:06.296Z,0.87
2017-10-03T08:51:04.751Z,0.90
